Time;durP1;ratioP1;P1;durP2;ratioP2;P2;SDS_P1;SDS_P2;PMS_P1;PMS_P2;Temp;Humidity;BMP_temperature;BMP_pressure;BME280_temperature;BME280_humidity;BME280_pressure;Samples;Min_cycle;Max_cycle;Signal;HPM_P1;HPM_P2
2023/03/24 00:00:44;;;;;;;16.65;9.73;;;11.70;99.90;;;;;;5112753;28;20066;-63
2023/03/24 00:03:09;;;;;;;20.63;9.60;;;11.50;99.90;;;;;;5112763;28;20471;-65
2023/03/24 00:05:35;;;;;;;16.58;9.27;;;10.90;99.90;;;;;;5146374;27;20081;-64
2023/03/24 00:08:02;;;;;;;20.15;8.80;;;11.20;99.90;;;;;;5112792;28;20427;-64
2023/03/24 00:10:29;;;;;;;18.80;9.10;;;11.30;99.90;;;;;;5112669;28;20048;-64
2023/03/24 00:12:57;;;;;;;19.58;8.80;;;11.60;99.90;;;;;;5112532;28;20346;-64
2023/03/24 00:15:24;;;;;;;21.85;8.63;;;11.20;99.90;;;;;;5112514;28;20043;-64
2023/03/24 00:17:50;;;;;;;17.10;9.40;;;11.20;99.90;;;;;;5112488;28;20047;-64
2023/03/24 00:20:18;;;;;;;19.75;9.75;;;11.00;99.90;;;;;;5112656;28;20044;-64
2023/03/24 00:22:49;;;;;;;25.23;9.63;;;11.10;99.90;;;;;;5111108;28;20662;-64
2023/03/24 00:25:22;;;;;;;17.58;8.93;;;11.30;99.90;;;;;;5112411;28;20051;-64
2023/03/24 00:27:48;;;;;;;23.83;9.20;;;11.30;99.90;;;;;;5112385;28;20058;-65
2023/03/24 00:30:15;;;;;;;16.13;9.25;;;11.40;99.90;;;;;;5112277;28;20043;-64
2023/03/24 00:32:41;;;;;;;17.65;9.07;;;11.20;99.90;;;;;;5112097;28;20095;-64
2023/03/24 00:35:09;;;;;;;21.35;8.98;;;10.90;99.90;;;;;;5112428;28;20051;-64
2023/03/24 00:37:36;;;;;;;17.38;9.30;;;11.40;99.90;;;;;;5112181;28;20039;-64
2023/03/24 00:40:11;;;;;;;21.25;9.57;;;11.60;99.90;;;;;;5112356;28;20036;-64
2023/03/24 00:42:39;;;;;;;20.15;9.05;;;11.20;99.90;;;;;;5111921;28;20177;-65
2023/03/24 00:45:07;;;;;;;20.75;9.05;;;11.20;99.90;;;;;;5112022;28;20056;-65
2023/03/24 00:47:36;;;;;;;18.58;8.20;;;11.40;99.90;;;;;;5112116;28;20039;-64
2023/03/24 00:50:08;;;;;;;16.48;8.73;;;11.20;99.90;;;;;;5112242;28;20044;-65
2023/03/24 00:52:34;;;;;;;15.88;9.13;;;10.90;99.90;;;;;;5112008;28;20494;-66
2023/03/24 00:55:00;;;;;;;;;;;11.40;99.90;;;;;;5112361;28;20054;-66
2023/03/24 00:57:28;;;;;;;17.38;9.05;;;11.10;99.90;;;;;;5111874;28;19945;-65
2023/03/24 00:59:56;;;;;;;17.67;8.15;;;11.30;99.90;;;;;;5111506;28;20054;-66
2023/03/24 01:02:24;;;;;;;18.65;8.38;;;10.90;99.90;;;;;;5112116;28;20054;-65
2023/03/24 01:04:55;;;;;;;17.17;8.52;;;11.20;99.90;;;;;;5110885;28;20085;-66
2023/03/24 01:07:21;;;;;;;20.25;8.40;;;11.30;99.90;;;;;;5111940;28;20083;-65
2023/03/24 01:09:56;;;;;;;15.23;7.93;;;11.40;99.90;;;;;;5111609;28;20044;-65
2023/03/24 01:12:30;;;;;;;18.25;9.00;;;11.30;99.90;;;;;;5112098;28;20344;-65
2023/03/24 01:15:01;;;;;;;19.33;9.32;;;11.30;99.90;;;;;;5111698;28;20052;-65
2023/03/24 01:17:28;;;;;;;20.42;8.88;;;11.30;99.90;;;;;;5111991;28;20048;-64
2023/03/24 01:19:55;;;;;;;18.77;8.45;;;11.00;99.90;;;;;;5111087;28;20083;-64
2023/03/24 01:22:22;;;;;;;19.27;8.93;;;11.20;99.90;;;;;;5112132;28;20101;-66
2023/03/24 01:24:48;;;;;;;15.98;9.20;;;11.10;99.90;;;;;;5111566;28;20122;-65
2023/03/24 01:27:15;;;;;;;16.15;8.52;;;11.20;99.90;;;;;;5111886;28;20047;-64
2023/03/24 01:29:41;;;;;;;11.18;7.85;;;11.00;99.90;;;;;;5111870;28;20387;-65
2023/03/24 01:32:07;;;;;;;16.23;8.30;;;11.20;99.90;;;;;;5111738;28;20067;-65
2023/03/24 01:34:33;;;;;;;18.08;8.40;;;11.30;99.90;;;;;;5146783;27;20060;-64
2023/03/24 01:36:59;;;;;;;;;;;11.00;99.90;;;;;;5116183;28;20479;-64
2023/03/24 01:39:25;;;;;;;18.77;8.63;;;10.90;99.90;;;;;;5115506;28;19958;-64
2023/03/24 01:41:51;;;;;;;15.38;7.22;;;11.30;99.90;;;;;;5114416;28;20510;-65
2023/03/24 01:44:35;;;;;;;13.05;8.30;;;11.20;99.90;;;;;;5115722;28;20101;-65
2023/03/24 01:47:04;;;;;;;15.77;7.85;;;11.20;99.90;;;;;;5115727;28;20051;-65
2023/03/24 01:49:36;;;;;;;16.80;8.55;;;10.80;99.90;;;;;;5115603;27;20074;-64
2023/03/24 01:52:04;;;;;;;16.73;8.00;;;11.60;99.90;;;;;;5115897;28;20094;-65
2023/03/24 01:54:53;;;;;;;16.48;8.00;;;11.50;99.90;;;;;;5115215;28;20383;-64
2023/03/24 01:57:41;;;;;;;13.15;7.97;;;11.40;99.90;;;;;;5115491;28;20050;-65
2023/03/24 02:00:11;;;;;;;17.58;8.10;;;11.70;99.90;;;;;;5115429;28;20050;-66
2023/03/24 02:02:41;;;;;;;14.30;7.47;;;11.00;99.90;;;;;;5115256;28;20043;-66
2023/03/24 02:05:09;;;;;;;15.23;8.38;;;11.80;99.90;;;;;;5115239;28;20105;-65
2023/03/24 02:07:56;;;;;;;15.77;7.70;;;11.60;99.90;;;;;;5115267;28;20047;-65
2023/03/24 02:10:23;;;;;;;14.90;7.70;;;11.20;99.90;;;;;;5115205;28;20047;-64
2023/03/24 02:12:48;;;;;;;13.18;7.60;;;11.10;99.90;;;;;;5115126;28;20047;-65
2023/03/24 02:15:16;;;;;;;13.48;7.60;;;11.90;99.90;;;;;;5115167;28;20138;-65
2023/03/24 02:18:00;;;;;;;16.00;8.30;;;11.70;99.90;;;;;;5115015;28;20458;-65
2023/03/24 02:20:50;;;;;;;13.13;8.15;;;11.60;99.90;;;;;;5114671;28;20537;-64
2023/03/24 02:23:44;;;;;;;14.05;7.75;;;11.10;99.90;;;;;;5114698;28;20130;-66
2023/03/24 02:26:53;;;;;;;12.65;7.40;;;11.50;99.90;;;;;;5114874;28;20079;-65
2023/03/24 02:29:45;;;;;;;15.98;7.93;;;11.30;99.90;;;;;;5114897;27;20112;-65
2023/03/24 02:32:36;;;;;;;17.25;7.93;;;11.80;99.90;;;;;;5114618;28;20076;-66
2023/03/24 02:35:32;;;;;;;12.38;7.70;;;11.30;99.90;;;;;;5114290;28;20452;-65
2023/03/24 02:38:28;;;;;;;17.00;8.18;;;11.10;99.90;;;;;;5096375;28;20054;-65
2023/03/24 02:41:06;;;;;;;14.32;8.30;;;11.50;99.90;;;;;;5114600;28;20052;-64
2023/03/24 02:43:55;;;;;;;13.43;8.43;;;11.70;99.90;;;;;;5114589;28;20100;-65
2023/03/24 02:46:34;;;;;;;14.43;8.35;;;11.20;99.90;;;;;;5113589;28;20051;-65
2023/03/24 02:49:15;;;;;;;15.18;8.15;;;11.30;99.90;;;;;;5114505;28;20061;-65
2023/03/24 02:51:58;;;;;;;12.05;8.52;;;11.50;99.90;;;;;;5114243;28;20454;-65
2023/03/24 02:54:42;;;;;;;12.93;9.18;;;11.90;99.90;;;;;;5114397;28;20092;-64
2023/03/24 02:57:19;;;;;;;13.77;8.05;;;11.50;99.90;;;;;;5112987;28;20391;-64
2023/03/24 02:59:56;;;;;;;11.32;7.88;;;11.60;99.90;;;;;;5114312;28;20044;-64
2023/03/24 03:02:33;;;;;;;11.85;7.90;;;11.40;99.90;;;;;;5113478;28;20109;-65
2023/03/24 03:05:28;;;;;;;15.73;8.25;;;11.50;99.90;;;;;;5114463;28;20111;-65
2023/03/24 03:07:57;;;;;;;11.02;8.15;;;11.60;99.90;;;;;;5108245;28;20062;-66
2023/03/24 03:10:28;;;;;;;11.65;7.93;;;11.70;99.90;;;;;;5114378;28;20036;-65
2023/03/24 03:12:58;;;;;;;16.73;7.78;;;11.40;99.90;;;;;;5114408;28;20468;-65
2023/03/24 03:15:32;;;;;;;6.97;4.30;;;11.90;99.90;;;;;;5114512;28;20078;-65
2023/03/24 03:18:13;;;;;;;10.02;5.78;;;11.20;99.90;;;;;;5114390;28;20043;-65
2023/03/24 03:20:49;;;;;;;8.35;4.63;;;11.30;99.90;;;;;;5113940;28;20173;-65
2023/03/24 03:23:19;;;;;;;10.35;4.57;;;10.90;99.90;;;;;;5114151;28;20047;-64
2023/03/24 03:25:51;;;;;;;6.07;3.75;;;11.00;99.90;;;;;;5114092;28;20415;-64
2023/03/24 03:28:21;;;;;;;7.32;4.25;;;10.50;99.90;;;;;;5114069;28;20694;-63
2023/03/24 03:30:58;;;;;;;6.82;3.67;;;10.90;99.90;;;;;;5113978;28;20047;-64
2023/03/24 03:33:25;;;;;;;;;;;10.80;99.90;;;;;;5112800;28;20091;-66
2023/03/24 03:36:15;;;;;;;7.05;3.28;;;11.00;99.90;;;;;;5113288;28;20384;-63
2023/03/24 03:38:44;;;;;;;8.60;3.78;;;10.60;99.90;;;;;;5113735;28;20043;-64
2023/03/24 03:41:10;;;;;;;13.50;2.67;;;11.00;99.90;;;;;;5113581;28;20039;-64
2023/03/24 03:43:36;;;;;;;8.05;2.75;;;10.70;99.90;;;;;;5112373;28;20043;-65
2023/03/24 03:46:06;;;;;;;9.15;2.42;;;10.80;99.90;;;;;;5113855;28;20134;-65
2023/03/24 03:48:32;;;;;;;13.10;2.67;;;10.70;99.90;;;;;;5113567;28;20039;-64
2023/03/24 03:50:58;;;;;;;7.97;2.20;;;11.10;99.90;;;;;;5113193;28;20126;-64
2023/03/24 03:53:31;;;;;;;17.52;2.88;;;10.80;99.90;;;;;;5113370;28;20155;-64
2023/03/24 03:55:57;;;;;;;12.50;2.78;;;10.60;99.90;;;;;;5113411;28;20055;-66
2023/03/24 03:58:23;;;;;;;9.25;2.33;;;10.70;99.90;;;;;;5113129;27;20044;-65
2023/03/24 04:00:50;;;;;;;14.35;2.65;;;10.70;99.90;;;;;;5113246;28;20039;-63
2023/03/24 04:03:39;;;;;;;12.38;3.05;;;10.30;99.90;;;;;;5113152;28;20048;-67
2023/03/24 04:06:18;;;;;;;12.25;2.80;;;10.60;99.90;;;;;;5113270;28;20057;-64
2023/03/24 04:09:12;;;;;;;10.05;2.35;;;10.20;99.90;;;;;;5113223;28;20044;-63
2023/03/24 04:11:49;;;;;;;12.68;3.35;;;10.40;99.90;;;;;;5146459;27;20048;-65
2023/03/24 04:14:40;;;;;;;15.73;2.30;;;10.10;99.90;;;;;;5112790;28;20482;-66
2023/03/24 04:17:27;;;;;;;10.88;2.60;;;10.40;99.90;;;;;;5146225;27;20047;-64
2023/03/24 04:20:04;;;;;;;15.30;2.55;;;9.80;99.90;;;;;;5112684;28;20043;-64
2023/03/24 04:22:48;;;;;;;13.20;2.67;;;9.90;99.90;;;;;;5112937;28;20043;-65
2023/03/24 04:25:30;;;;;;;10.55;2.72;;;9.80;99.90;;;;;;5112911;28;20097;-64
2023/03/24 04:28:39;;;;;;;12.65;2.53;;;9.80;99.90;;;;;;5112585;28;20052;-64
2023/03/24 04:31:25;;;;;;;13.90;3.05;;;10.00;99.90;;;;;;5078751;28;20403;-63
2023/03/24 04:33:57;;;;;;;12.93;2.88;;;9.60;99.90;;;;;;5112561;28;20064;-65
2023/03/24 04:36:55;;;;;;;14.40;2.60;;;9.70;99.90;;;;;;5112681;28;20480;-66
2023/03/24 04:39:27;;;;;;;24.60;3.83;;;9.60;99.90;;;;;;5112339;28;20044;-64
2023/03/24 04:42:00;;;;;;;16.40;3.30;;;9.60;99.90;;;;;;5112712;28;20047;-63
2023/03/24 04:44:29;;;;;;;18.27;2.97;;;9.50;99.90;;;;;;5112569;28;20040;-63
2023/03/24 04:46:56;;;;;;;20.50;3.90;;;9.20;99.90;;;;;;5112537;28;20055;-62
2023/03/24 04:49:26;;;;;;;15.32;3.00;;;9.30;99.90;;;;;;5112189;28;20090;-63
2023/03/24 04:51:52;;;;;;;22.17;3.60;;;9.10;99.90;;;;;;5112462;28;20047;-63
2023/03/24 04:54:18;;;;;;;18.77;2.67;;;9.20;99.90;;;;;;5112448;28;20047;-63
2023/03/24 04:56:50;;;;;;;15.88;3.17;;;9.40;99.90;;;;;;5112421;28;20147;-63
2023/03/24 04:59:16;;;;;;;21.13;3.00;;;9.10;99.90;;;;;;5112326;28;20089;-62
2023/03/24 05:01:48;;;;;;;23.00;3.30;;;9.10;99.90;;;;;;5112346;28;20047;-63
2023/03/24 05:04:16;;;;;;;20.70;3.38;;;9.20;99.90;;;;;;5112387;28;20048;-63
2023/03/24 05:06:42;;;;;;;17.23;3.60;;;9.30;99.90;;;;;;5112315;28;20051;-63
2023/03/24 05:09:08;;;;;;;23.40;3.47;;;9.10;99.90;;;;;;5113529;28;20074;-66
2023/03/24 05:11:34;;;;;;;28.25;3.72;;;9.00;99.90;;;;;;5116766;28;20043;-64
2023/03/24 05:13:59;;;;;;;19.85;3.10;;;9.00;99.90;;;;;;5116636;28;20048;-64
2023/03/24 05:16:25;;;;;;;21.83;3.65;;;9.00;99.90;;;;;;5116215;28;20171;-63
2023/03/24 05:18:51;;;;;;;19.20;3.45;;;8.90;99.90;;;;;;5116431;28;20130;-63
2023/03/24 05:21:19;;;;;;;24.70;4.13;;;9.10;99.90;;;;;;5115113;28;20047;-63
2023/03/24 05:23:45;;;;;;;25.65;4.00;;;9.10;99.90;;;;;;5116430;28;20051;-64
2023/03/24 05:26:10;;;;;;;16.20;3.85;;;9.30;99.90;;;;;;5116332;28;20449;-64
2023/03/24 05:28:36;;;;;;;22.33;4.13;;;9.10;99.90;;;;;;5116355;28;20052;-64
2023/03/24 05:31:02;;;;;;;22.20;4.15;;;9.00;99.90;;;;;;5115963;28;20827;-63
2023/03/24 05:33:28;;;;;;;21.33;4.57;;;9.30;99.90;;;;;;5115808;28;20051;-63
2023/03/24 05:35:53;;;;;;;23.38;4.32;;;9.30;99.90;;;;;;5116094;28;20055;-64
2023/03/24 05:38:19;;;;;;;25.60;4.57;;;9.30;99.90;;;;;;5149415;27;20519;-65
2023/03/24 05:40:45;;;;;;;24.90;4.22;;;9.20;99.90;;;;;;5115753;28;20051;-64
2023/03/24 05:43:11;;;;;;;18.63;4.00;;;9.40;99.90;;;;;;5116274;28;20157;-64
2023/03/24 05:45:37;;;;;;;20.63;3.88;;;9.00;99.90;;;;;;5114557;28;20044;-65
2023/03/24 05:48:04;;;;;;;22.63;4.30;;;9.30;99.90;;;;;;5115927;28;20044;-63
2023/03/24 05:50:30;;;;;;;18.95;3.90;;;9.50;99.90;;;;;;5115479;28;20484;-63
2023/03/24 05:52:56;;;;;;;25.45;3.95;;;9.30;99.90;;;;;;5115721;28;20122;-64
2023/03/24 05:55:22;;;;;;;20.55;4.35;;;9.20;99.90;;;;;;5115643;27;20510;-63
2023/03/24 05:57:47;;;;;;;20.45;4.18;;;9.30;99.90;;;;;;5115376;28;20039;-63
2023/03/24 06:00:15;;;;;;;27.63;4.55;;;9.00;99.90;;;;;;5115664;28;20148;-63
2023/03/24 06:02:45;;;;;;;20.50;3.65;;;9.30;99.90;;;;;;5115595;28;20054;-64
2023/03/24 06:05:12;;;;;;;21.20;3.70;;;9.60;99.90;;;;;;5148915;27;20100;-63
2023/03/24 06:07:41;;;;;;;22.33;3.88;;;9.30;99.90;;;;;;5114305;28;20055;-63
2023/03/24 06:10:10;;;;;;;19.23;4.20;;;9.50;99.90;;;;;;5115365;28;20400;-65
2023/03/24 06:12:36;;;;;;;17.63;3.72;;;9.30;99.90;;;;;;5115410;28;20105;-64
2023/03/24 06:15:02;;;;;;;23.30;4.75;;;9.40;99.90;;;;;;5113731;28;20087;-64
2023/03/24 06:17:29;;;;;;;23.23;4.55;;;9.50;99.90;;;;;;5113966;28;20568;-64
2023/03/24 06:20:03;;;;;;;24.65;4.13;;;9.20;99.90;;;;;;5115210;28;20074;-64
2023/03/24 06:22:33;;;;;;;18.73;3.85;;;9.30;99.90;;;;;;5115211;28;20532;-65
2023/03/24 06:24:59;;;;;;;15.63;3.40;;;9.60;99.90;;;;;;5115226;28;20090;-64
2023/03/24 06:27:34;;;;;;;16.63;4.10;;;9.30;99.90;;;;;;5115095;28;20128;-63
2023/03/24 06:30:01;;;;;;;19.98;4.10;;;9.40;99.90;;;;;;5114808;28;20083;-63
2023/03/24 06:32:27;;;;;;;17.00;3.28;;;9.60;99.90;;;;;;5114775;27;20063;-63
2023/03/24 06:34:53;;;;;;;15.98;3.30;;;9.60;99.90;;;;;;5115073;28;20047;-66
2023/03/24 06:37:21;;;;;;;21.00;4.15;;;9.30;99.90;;;;;;5115027;28;20105;-64
2023/03/24 06:39:47;;;;;;;20.45;3.63;;;9.50;99.90;;;;;;5113831;28;20047;-63
2023/03/24 06:42:13;;;;;;;18.70;3.90;;;9.40;99.90;;;;;;5104851;27;20052;-63
2023/03/24 06:44:39;;;;;;;23.80;4.38;;;9.50;99.90;;;;;;5114011;28;20055;-63
2023/03/24 06:47:05;;;;;;;18.83;4.18;;;9.50;99.90;;;;;;5114356;28;20089;-64
2023/03/24 06:49:33;;;;;;;;;;;9.70;99.90;;;;;;5114305;27;20046;-63
2023/03/24 06:52:00;;;;;;;18.83;4.07;;;9.50;99.90;;;;;;5114337;28;19947;-65
2023/03/24 06:54:26;;;;;;;15.02;3.60;;;9.60;99.90;;;;;;5113137;28;20040;-63
2023/03/24 06:56:52;;;;;;;21.42;3.22;;;9.60;99.90;;;;;;5113324;27;20066;-64
2023/03/24 06:59:22;;;;;;;20.30;3.58;;;9.90;99.90;;;;;;5114098;28;20514;-63
2023/03/24 07:01:49;;;;;;;21.75;3.13;;;9.50;99.90;;;;;;5114356;28;20047;-63
2023/03/24 07:04:15;;;;;;;20.25;3.72;;;9.50;99.90;;;;;;5114089;28;20078;-64
2023/03/24 07:06:41;;;;;;;23.58;3.95;;;9.60;99.90;;;;;;5114156;28;20039;-64
2023/03/24 07:09:07;;;;;;;23.10;3.97;;;9.80;99.90;;;;;;5114042;28;20051;-64
2023/03/24 07:11:32;;;;;;;20.30;4.20;;;9.70;99.90;;;;;;5112867;28;20050;-63
2023/03/24 07:13:58;;;;;;;19.70;3.50;;;10.10;99.90;;;;;;5113716;28;20050;-63
2023/03/24 07:16:24;;;;;;;22.95;4.05;;;9.50;99.90;;;;;;5112750;28;20177;-64
2023/03/24 07:18:50;;;;;;;18.77;3.83;;;9.60;99.90;;;;;;5113216;28;20476;-65
2023/03/24 07:21:15;;;;;;;21.02;3.47;;;9.80;99.90;;;;;;5113753;28;20054;-65
2023/03/24 07:23:41;;;;;;;20.02;3.30;;;9.70;99.90;;;;;;5113663;28;20052;-64
2023/03/24 07:26:07;;;;;;;20.70;3.58;;;9.60;99.90;;;;;;5111832;28;20071;-64
2023/03/24 07:28:32;;;;;;;25.08;4.35;;;10.10;99.90;;;;;;5113562;28;20043;-65
2023/03/24 07:31:02;;;;;;;25.70;4.15;;;9.70;99.90;;;;;;5113578;28;20039;-64
2023/03/24 07:33:27;;;;;;;29.05;4.43;;;9.70;99.90;;;;;;5112127;28;20108;-64
2023/03/24 07:35:55;;;;;;;18.40;2.92;;;10.00;99.90;;;;;;5113512;28;20039;-64
2023/03/24 07:38:20;;;;;;;19.42;3.58;;;10.10;99.90;;;;;;5113589;28;20091;-65
2023/03/24 07:40:46;;;;;;;19.98;4.07;;;9.90;99.90;;;;;;5112573;28;20074;-65
2023/03/24 07:43:13;;;;;;;;;;;10.00;99.90;;;;;;5113608;28;20097;-65
2023/03/24 07:45:38;;;;;;;25.23;3.83;;;10.10;99.90;;;;;;5113376;28;19919;-64
2023/03/24 07:48:05;;;;;;;19.48;3.50;;;10.00;99.90;;;;;;5112975;28;20062;-64
2023/03/24 07:50:31;;;;;;;;;;;10.30;99.90;;;;;;5113615;28;20047;-65
2023/03/24 07:52:56;;;;;;;34.80;3.97;;;10.10;99.90;;;;;;5113284;28;19931;-64
2023/03/24 07:55:22;;;;;;;26.23;4.57;;;10.20;99.90;;;;;;5112346;28;20044;-63
2023/03/24 07:57:49;;;;;;;21.25;4.47;;;10.20;99.90;;;;;;5110056;28;20130;-66
2023/03/24 08:00:20;;;;;;;23.50;4.20;;;10.20;99.90;;;;;;5111250;28;20055;-66
2023/03/24 08:02:51;;;;;;;27.30;3.88;;;10.30;99.90;;;;;;5111347;28;20052;-64
2023/03/24 08:05:20;;;;;;;24.05;4.32;;;10.00;99.90;;;;;;5112672;28;20077;-64
2023/03/24 08:07:54;;;;;;;23.40;3.60;;;10.20;99.90;;;;;;5113069;27;20051;-64
2023/03/24 08:10:26;;;;;;;19.60;4.20;;;10.20;99.90;;;;;;5112848;28;20048;-65
2023/03/24 08:12:52;;;;;;;18.73;3.83;;;10.00;99.90;;;;;;5113059;28;20043;-65
2023/03/24 08:15:18;;;;;;;16.75;3.47;;;9.70;99.90;;;;;;5112726;27;20483;-63
2023/03/24 08:17:44;;;;;;;20.98;3.95;;;10.30;99.90;;;;;;5113127;28;20044;-65
2023/03/24 08:20:13;;;;;;;16.60;3.72;;;10.30;99.90;;;;;;5113143;28;20373;-64
2023/03/24 08:22:40;;;;;;;24.48;3.85;;;10.50;99.90;;;;;;5112418;27;20048;-64
2023/03/24 08:25:06;;;;;;;25.88;4.43;;;10.40;99.90;;;;;;5145874;27;20051;-65
2023/03/24 08:27:31;;;;;;;22.38;4.10;;;10.70;99.90;;;;;;5109786;28;20072;-64
2023/03/24 08:29:57;;;;;;;27.52;4.18;;;10.50;99.90;;;;;;5105598;28;20115;-64
2023/03/24 08:32:23;;;;;;;27.08;4.13;;;10.40;99.90;;;;;;5092156;27;20050;-65
2023/03/24 08:34:49;;;;;;;20.10;3.92;;;10.40;99.90;;;;;;5108061;28;20121;-63
2023/03/24 08:37:14;;;;;;;17.52;4.28;;;10.50;99.90;;;;;;5093302;28;20054;-64
2023/03/24 08:39:40;;;;;;;17.63;4.15;;;10.60;99.90;;;;;;5111106;28;20051;-65
2023/03/24 08:42:06;;;;;;;27.33;5.15;;;10.70;99.90;;;;;;5111936;28;20081;-66
2023/03/24 08:44:31;;;;;;;20.02;3.50;;;10.40;99.90;;;;;;5109519;28;20047;-65
2023/03/24 08:46:59;;;;;;;18.33;4.20;;;10.60;99.90;;;;;;5112168;28;20515;-62
2023/03/24 08:49:25;;;;;;;32.65;3.83;;;10.40;99.90;;;;;;5108403;28;20599;-63
2023/03/24 08:51:51;;;;;;;25.08;4.20;;;10.70;99.90;;;;;;5108660;28;20047;-65
2023/03/24 08:54:16;;;;;;;24.45;3.90;;;10.80;99.90;;;;;;5112039;28;20547;-63
2023/03/24 08:56:42;;;;;;;25.08;3.80;;;10.60;99.90;;;;;;5112418;28;20054;-63
2023/03/24 08:59:08;;;;;;;21.73;4.43;;;11.00;99.90;;;;;;5112287;28;20043;-63
2023/03/24 09:01:34;;;;;;;21.60;3.67;;;10.80;99.90;;;;;;5112270;28;20048;-63
2023/03/24 09:04:00;;;;;;;18.10;3.95;;;10.80;99.90;;;;;;5106518;28;20060;-69
2023/03/24 09:06:26;;;;;;;;;;;10.80;99.90;;;;;;5107364;28;20101;-64
2023/03/24 09:08:53;;;;;;;24.63;4.55;;;11.10;99.90;;;;;;5111786;28;19924;-64
2023/03/24 09:11:20;;;;;;;22.67;3.80;;;10.70;99.90;;;;;;5112057;28;20061;-63
2023/03/24 09:13:46;;;;;;;30.83;4.22;;;10.70;99.90;;;;;;5111445;28;20131;-63
2023/03/24 09:16:12;;;;;;;20.40;4.00;;;11.00;99.90;;;;;;5110085;28;20047;-65
2023/03/24 09:18:38;;;;;;;24.88;4.50;;;10.90;99.90;;;;;;5110841;28;20050;-63
2023/03/24 09:21:05;;;;;;;17.45;3.75;;;11.10;99.90;;;;;;5111864;28;20398;-63
2023/03/24 09:23:31;;;;;;;30.85;5.20;;;10.90;99.90;;;;;;5111912;28;20043;-63
2023/03/24 09:25:57;;;;;;;23.35;3.67;;;10.90;99.90;;;;;;5112160;28;20376;-64
2023/03/24 09:28:23;;;;;;;27.30;4.72;;;11.20;99.90;;;;;;5111138;28;20047;-63
2023/03/24 09:30:49;;;;;;;14.30;3.38;;;11.30;99.90;;;;;;5112071;28;20044;-63
2023/03/24 09:33:15;;;;;;;28.92;4.75;;;11.70;99.90;;;;;;5111799;28;20063;-63
2023/03/24 09:35:41;;;;;;;27.00;4.43;;;11.30;99.90;;;;;;5094086;28;20060;-63
2023/03/24 09:38:06;;;;;;;18.13;3.65;;;11.70;99.90;;;;;;5111826;28;20048;-65
2023/03/24 09:40:36;;;;;;;26.20;4.60;;;11.70;99.90;;;;;;5112080;28;20043;-64
2023/03/24 09:43:05;;;;;;;21.40;4.07;;;11.90;99.90;;;;;;5112101;28;20055;-65
2023/03/24 09:45:35;;;;;;;17.42;2.78;;;11.70;99.90;;;;;;5112073;28;20138;-64
2023/03/24 09:48:18;;;;;;;22.58;3.40;;;11.40;99.90;;;;;;5112131;28;20046;-64
2023/03/24 09:50:57;;;;;;;14.85;2.97;;;11.80;99.90;;;;;;5110876;28;20486;-66
2023/03/24 09:53:36;;;;;;;13.02;3.20;;;11.20;99.90;;;;;;5111713;28;20062;-63
2023/03/24 09:56:13;;;;;;;22.23;3.78;;;11.40;99.90;;;;;;5114166;28;20047;-64
2023/03/24 09:58:42;;;;;;;14.40;3.03;;;11.40;99.90;;;;;;5115770;28;20196;-65
2023/03/24 10:01:15;;;;;;;18.23;4.13;;;11.60;99.90;;;;;;5115765;28;20475;-65
2023/03/24 10:03:42;;;;;;;17.23;3.75;;;11.60;99.90;;;;;;5115643;28;20055;-64
2023/03/24 10:06:35;;;;;;;17.80;3.67;;;11.80;99.90;;;;;;5115608;28;20054;-64
2023/03/24 10:09:28;;;;;;;21.98;3.65;;;11.70;99.90;;;;;;5115576;28;20043;-64
2023/03/24 10:12:09;;;;;;;25.38;3.97;;;12.20;99.90;;;;;;5115312;28;20621;-63
2023/03/24 10:15:03;;;;;;;19.67;3.10;;;12.40;99.90;;;;;;5115521;28;20049;-64
2023/03/24 10:17:38;;;;;;;20.92;3.78;;;12.00;99.90;;;;;;5115354;28;20101;-64
2023/03/24 10:20:15;;;;;;;20.13;3.65;;;12.20;99.90;;;;;;5114184;28;20388;-64
2023/03/24 10:23:02;;;;;;;21.40;3.75;;;12.10;99.90;;;;;;5114025;28;20047;-64
2023/03/24 10:26:18;;;;;;;25.73;4.25;;;12.30;99.90;;;;;;5115278;28;20051;-63
2023/03/24 10:29:03;;;;;;;20.23;3.40;;;12.50;99.90;;;;;;5051887;28;20041;-64
2023/03/24 10:31:32;;;;;;;18.02;3.67;;;12.10;99.90;;;;;;5109943;28;20507;-63
2023/03/24 10:33:59;;;;;;;21.83;4.05;;;12.30;99.90;;;;;;5114949;28;20063;-64
2023/03/24 10:36:26;;;;;;;20.90;3.42;;;12.60;99.90;;;;;;5114763;28;20052;-64
2023/03/24 10:38:53;;;;;;;18.73;3.28;;;12.70;99.90;;;;;;5115149;28;20115;-64
2023/03/24 10:41:21;;;;;;;17.88;3.83;;;12.70;99.90;;;;;;5114936;28;20077;-65
2023/03/24 10:43:49;;;;;;;14.68;2.95;;;12.60;99.90;;;;;;5114903;28;20093;-66
2023/03/24 10:46:19;;;;;;;17.90;3.00;;;12.20;99.90;;;;;;5114936;28;20414;-63
2023/03/24 10:48:47;;;;;;;16.98;3.25;;;12.00;99.90;;;;;;5114969;28;20409;-64
2023/03/24 10:51:25;;;;;;;20.10;3.15;;;12.20;99.90;;;;;;5114465;28;20046;-65
2023/03/24 10:54:14;;;;;;;18.75;3.42;;;12.40;99.90;;;;;;5114889;28;20058;-63
2023/03/24 10:56:45;;;;;;;17.48;3.00;;;12.80;99.90;;;;;;5114743;28;20046;-63
2023/03/24 10:59:31;;;;;;;14.55;2.92;;;12.90;99.90;;;;;;5114965;28;20051;-65
2023/03/24 11:02:08;;;;;;;14.98;3.13;;;12.60;99.90;;;;;;5114788;28;20056;-64
2023/03/24 11:04:38;;;;;;;20.10;3.30;;;12.70;99.90;;;;;;5114361;28;20457;-64
2023/03/24 11:07:16;;;;;;;13.32;2.95;;;12.70;99.90;;;;;;5113473;28;20079;-65
2023/03/24 11:09:55;;;;;;;16.25;3.03;;;12.70;99.90;;;;;;5114307;28;20078;-63
2023/03/24 11:12:32;;;;;;;18.60;3.60;;;12.50;99.90;;;;;;5113744;28;20035;-63
2023/03/24 11:15:19;;;;;;;19.02;3.75;;;12.70;99.90;;;;;;5113895;28;20100;-63
2023/03/24 11:17:48;;;;;;;15.57;3.03;;;12.80;99.90;;;;;;5105317;27;20135;-64
2023/03/24 11:20:20;;;;;;;17.00;3.78;;;13.00;99.90;;;;;;5113155;28;20122;-64
2023/03/24 11:23:17;;;;;;;18.33;3.55;;;12.80;99.90;;;;;;5113490;28;20173;-63
2023/03/24 11:26:00;;;;;;;23.02;3.65;;;13.00;99.90;;;;;;5100333;28;20411;-65
2023/03/24 11:28:27;;;;;;;16.95;3.10;;;13.10;99.90;;;;;;5106190;28;20517;-62
2023/03/24 11:30:54;;;;;;;18.63;3.08;;;12.60;99.90;;;;;;5113923;27;20101;-62
2023/03/24 11:33:33;;;;;;;14.93;3.22;;;12.60;99.90;;;;;;5113189;28;20063;-63
2023/03/24 11:36:00;;;;;;;16.98;2.88;;;12.70;99.90;;;;;;5111898;28;20568;-63
2023/03/24 11:38:31;;;;;;;21.58;3.17;;;12.40;99.90;;;;;;5113023;28;20480;-62
2023/03/24 11:41:08;;;;;;;18.67;3.25;;;12.40;99.90;;;;;;5111262;28;20035;-62
2023/03/24 11:43:34;;;;;;;;;;;12.70;99.90;;;;;;5109946;28;20050;-63
2023/03/24 11:46:16;;;;;;;16.88;3.35;;;12.70;99.90;;;;;;5113235;28;19920;-62
2023/03/24 11:48:51;;;;;;;15.75;3.35;;;13.10;99.90;;;;;;5111469;28;20055;-62
2023/03/24 11:51:33;;;;;;;16.25;3.15;;;13.00;99.90;;;;;;5112422;28;20035;-62
2023/03/24 11:54:02;;;;;;;11.48;2.92;;;13.30;99.90;;;;;;5109912;28;20495;-63
2023/03/24 11:56:41;;;;;;;18.92;3.08;;;13.20;99.90;;;;;;5112847;28;20483;-63
2023/03/24 11:59:28;;;;;;;20.90;3.65;;;13.00;99.90;;;;;;5110889;28;20046;-63
2023/03/24 12:02:00;;;;;;;15.95;3.75;;;13.40;99.90;;;;;;5112542;27;20088;-69
2023/03/24 12:04:41;;;;;;;12.70;2.58;;;13.60;99.90;;;;;;5131997;27;20086;-66
2023/03/24 12:07:16;;;;;;;14.55;3.45;;;13.20;99.90;;;;;;5133814;27;20494;-64
2023/03/24 12:09:56;;;;;;;15.07;2.72;;;13.20;99.90;;;;;;5133756;27;20054;-63
2023/03/24 12:12:50;;;;;;;19.50;3.35;;;13.30;99.90;;;;;;5133891;27;20051;-65
2023/03/24 12:15:31;;;;;;;18.52;3.30;;;13.30;99.90;;;;;;5109319;27;20043;-64
2023/03/24 12:18:17;;;;;;;16.35;3.38;;;13.40;99.90;;;;;;5129246;27;20073;-65
2023/03/24 12:20:48;;;;;;;17.42;2.70;;;13.30;99.90;;;;;;5126548;27;20153;-63
2023/03/24 12:23:27;;;;;;;9.93;2.78;;;13.40;99.90;;;;;;5133275;27;20047;-66
2023/03/24 12:26:03;;;;;;;18.90;3.08;;;13.50;99.90;;;;;;5133336;27;20051;-66
2023/03/24 12:28:28;;;;;;;11.35;2.35;;;13.60;99.90;;;;;;5133012;27;20053;-64
2023/03/24 12:31:25;;;;;;;19.80;3.30;;;13.90;99.90;;;;;;5120462;27;20118;-65
2023/03/24 12:34:32;;;;;;;17.95;3.35;;;14.10;99.90;;;;;;5110477;28;20051;-65
2023/03/24 12:37:00;;;;;;;20.42;3.05;;;13.80;99.90;;;;;;5069288;28;20053;-65
2023/03/24 12:39:31;;;;;;;18.33;2.97;;;13.90;99.90;;;;;;5103193;28;20055;-64
2023/03/24 12:42:11;;;;;;;14.02;3.03;;;13.90;99.90;;;;;;5112089;28;20044;-62
2023/03/24 12:45:01;;;;;;;10.00;2.67;;;14.00;99.90;;;;;;5111754;28;20035;-63
2023/03/24 12:47:38;;;;;;;10.82;2.42;;;14.10;99.90;;;;;;5110003;28;20048;-64
2023/03/24 12:50:38;;;;;;;21.42;3.60;;;14.30;99.90;;;;;;5111221;28;20051;-65
2023/03/24 12:53:07;;;;;;;14.25;2.60;;;13.80;99.90;;;;;;5112689;28;20361;-62
2023/03/24 12:55:40;;;;;;;13.27;2.58;;;14.10;99.90;;;;;;5112552;28;20051;-64
2023/03/24 12:58:40;;;;;;;16.98;2.85;;;14.10;99.90;;;;;;5112320;28;20044;-63
2023/03/24 13:01:17;;;;;;;13.52;3.08;;;13.60;99.90;;;;;;5112111;28;20043;-63
2023/03/24 13:03:47;;;;;;;13.05;2.92;;;13.50;99.90;;;;;;5112051;28;20122;-63
2023/03/24 13:06:23;;;;;;;14.80;2.67;;;13.00;99.90;;;;;;5112244;28;20540;-63
2023/03/24 13:09:12;;;;;;;15.43;3.15;;;13.70;99.90;;;;;;5112235;28;20139;-65